createdAt,value
2023-05-15T00:00:12.034Z,98900.28
2023-05-15T00:04:14.712Z,98892.97
2023-05-15T00:08:18.791Z,98908.16
2023-05-15T00:12:21.367Z,98903.75
2023-05-15T00:16:24.014Z,98897.41
2023-05-15T00:20:26.662Z,98903.59
2023-05-15T00:24:30.633Z,98897.06
2023-05-15T00:28:33.309Z,98889.28
2023-05-15T00:32:35.995Z,98890.97
2023-05-15T00:36:38.668Z,98897.91
2023-05-15T00:40:43.583Z,98889.72
2023-05-15T00:44:46.727Z,98892.53
2023-05-15T00:48:51.602Z,98890.84
2023-05-15T00:52:54.272Z,98893.22
2023-05-15T00:56:58.534Z,98891.28
2023-05-15T01:01:01.247Z,98881.31
2023-05-15T01:05:04.923Z,98895.25
2023-05-15T01:09:08.370Z,98886.28
2023-05-15T01:13:12.881Z,98884.94
2023-05-15T01:17:15.521Z,98876.13
2023-05-15T01:21:28.941Z,98885.66
2023-05-15T01:25:55.066Z,98880.88
2023-05-15T01:30:01.882Z,98879.72
2023-05-15T01:34:05.023Z,98870.66
2023-05-15T01:38:16.956Z,98878.00
2023-05-15T01:42:20.660Z,98867.78
2023-05-15T01:46:24.655Z,98875.78
2023-05-15T01:50:27.911Z,98871.63
2023-05-15T01:54:30.984Z,98875.44
2023-05-15T01:58:33.569Z,98879.03
2023-05-15T02:02:37.913Z,98878.88
2023-05-15T02:06:40.909Z,98876.72
2023-05-15T02:10:44.186Z,98865.94
2023-05-15T02:14:48.019Z,98861.00
2023-05-15T02:18:52.633Z,98858.97
2023-05-15T02:22:55.446Z,98865.31
2023-05-15T02:27:03.392Z,98859.53
2023-05-15T02:31:09.770Z,98863.94
2023-05-15T02:35:19.675Z,98865.31
2023-05-15T02:39:23.585Z,98861.66
2023-05-15T02:43:27.376Z,98853.25
2023-05-15T02:47:30.805Z,98856.53
2023-05-15T02:51:34.912Z,98853.34
2023-05-15T02:55:38.600Z,98851.50
2023-05-15T02:59:41.397Z,98852.28
2023-05-15T03:03:44.029Z,98851.34
2023-05-15T03:07:48.106Z,98856.59
2023-05-15T03:11:50.710Z,98848.84
2023-05-15T03:15:53.668Z,98846.41
2023-05-15T03:19:56.407Z,98847.50
2023-05-15T03:24:00.442Z,98850.13
2023-05-15T03:28:03.249Z,98852.41
2023-05-15T03:32:06.304Z,98853.72
2023-05-15T03:36:09.144Z,98854.50
2023-05-15T03:40:14.888Z,98851.28
2023-05-15T03:44:17.515Z,98843.66
2023-05-15T03:48:20.191Z,98849.31
2023-05-15T03:52:22.892Z,98849.69
2023-05-15T03:56:26.943Z,98850.94
2023-05-15T04:00:29.589Z,98847.97
2023-05-15T04:04:32.199Z,98852.34
2023-05-15T04:08:34.845Z,98858.00
2023-05-15T04:12:38.809Z,98852.59
2023-05-15T04:16:41.484Z,98852.25
2023-05-15T04:20:44.133Z,98839.63
2023-05-15T04:24:46.766Z,98846.22
2023-05-15T04:29:02.773Z,98851.63
2023-05-15T04:33:06.651Z,98860.25
2023-05-15T04:37:09.285Z,98846.84
2023-05-15T04:41:12.035Z,98848.78
2023-05-15T04:45:16.022Z,98849.41
2023-05-15T04:49:18.684Z,98854.53
2023-05-15T04:53:21.306Z,98854.06
2023-05-15T04:57:23.996Z,98850.91
2023-05-15T05:01:28.066Z,98850.22
2023-05-15T05:05:30.707Z,98852.75
2023-05-15T05:09:33.332Z,98848.31
2023-05-15T05:13:36.103Z,98850.19
2023-05-15T05:17:40.106Z,98845.69
2023-05-15T05:21:42.750Z,98855.16
2023-05-15T05:25:45.380Z,98851.94
2023-05-15T05:29:47.993Z,98849.00
2023-05-15T05:33:52.834Z,98854.19
2023-05-15T05:37:55.878Z,98847.81
2023-05-15T05:41:58.542Z,98853.69
2023-05-15T05:46:01.180Z,98854.13
2023-05-15T05:50:05.786Z,98857.75
2023-05-15T05:54:08.422Z,98852.06
2023-05-15T05:58:24.013Z,98847.25
2023-05-15T06:02:27.621Z,98842.03
2023-05-15T06:06:31.700Z,98849.34
2023-05-15T06:10:34.526Z,98861.25
2023-05-15T06:14:37.135Z,98856.50
2023-05-15T06:18:39.766Z,98864.28
2023-05-15T06:22:43.761Z,98866.28
2023-05-15T06:26:46.408Z,98861.50
2023-05-15T06:30:49.086Z,98870.28
2023-05-15T06:34:52.049Z,98850.97
2023-05-15T06:38:56.018Z,98866.13
2023-05-15T06:42:58.771Z,98863.75
2023-05-15T06:47:01.472Z,98863.88
2023-05-15T06:51:04.557Z,98861.84
2023-05-15T06:55:09.057Z,98865.22
2023-05-15T06:59:11.677Z,98864.88
2023-05-15T07:03:16.692Z,98870.50
2023-05-15T07:07:19.365Z,98881.56
2023-05-15T07:11:23.371Z,98873.59
2023-05-15T07:15:26.218Z,98866.25
2023-05-15T07:19:28.899Z,98860.13
2023-05-15T07:23:31.374Z,98864.34
2023-05-15T07:27:35.411Z,98867.56
2023-05-15T07:31:38.414Z,98871.16
2023-05-15T07:35:41.089Z,98867.03
2023-05-15T07:39:43.702Z,98876.34
2023-05-15T07:43:47.685Z,98867.84
2023-05-15T07:47:50.818Z,98867.84
2023-05-15T07:51:53.464Z,98863.16
2023-05-15T07:55:56.448Z,98861.66
2023-05-15T08:00:00.945Z,98860.69
2023-05-15T08:04:04.598Z,98861.16
2023-05-15T08:08:07.321Z,98866.56
2023-05-15T08:12:20.633Z,98869.66
2023-05-15T08:16:24.656Z,98869.41
2023-05-15T08:20:27.329Z,98872.31
2023-05-15T08:24:29.965Z,98864.63
2023-05-15T08:28:32.569Z,98862.84
2023-05-15T08:32:36.608Z,98865.72
2023-05-15T08:36:39.676Z,98864.03
2023-05-15T08:40:43.011Z,98865.75
2023-05-15T08:44:45.680Z,98862.44
2023-05-15T08:48:50.504Z,98867.44
2023-05-15T08:52:53.314Z,98841.00
2023-05-15T08:56:55.777Z,98849.19
2023-05-15T09:00:58.757Z,98849.78
2023-05-15T09:05:03.370Z,98848.84
2023-05-15T09:09:06.401Z,98844.06
2023-05-15T09:13:09.229Z,98849.91
2023-05-15T09:17:12.272Z,98849.00
2023-05-15T09:21:26.595Z,98841.31
2023-05-15T09:25:37.476Z,98844.72
2023-05-15T09:29:40.422Z,98853.88
2023-05-15T09:33:43.301Z,98848.25
2023-05-15T09:37:47.267Z,98850.72
2023-05-15T09:41:49.932Z,98850.00
2023-05-15T09:45:52.664Z,98853.19
2023-05-15T09:49:56.050Z,98847.34
2023-05-15T09:54:00.218Z,98841.09
2023-05-15T09:58:07.296Z,98839.31
2023-05-15T10:02:09.876Z,98835.38
2023-05-15T10:06:19.206Z,98847.34
2023-05-15T10:10:23.797Z,98841.41
2023-05-15T10:14:27.810Z,98839.50
2023-05-15T10:18:31.643Z,98841.69
2023-05-15T10:22:38.223Z,98817.91
2023-05-15T10:26:43.341Z,98821.22
2023-05-15T10:30:46.911Z,98817.25
2023-05-15T10:34:49.966Z,98810.13
2023-05-15T10:38:53.297Z,98811.16
2023-05-15T10:42:59.061Z,98810.28
2023-05-15T10:47:02.151Z,98803.75
2023-05-15T10:51:04.978Z,98808.53
2023-05-15T10:55:09.386Z,98792.03
2023-05-15T10:59:13.453Z,98773.97
2023-05-15T11:03:16.598Z,98778.44
2023-05-15T11:07:20.234Z,98779.53
2023-05-15T11:11:57.119Z,98762.50
2023-05-15T11:16:01.379Z,98764.25
2023-05-15T11:20:05.177Z,98755.97
2023-05-15T11:24:08.211Z,98745.16
2023-05-15T11:28:22.274Z,98736.84
2023-05-15T11:32:49.156Z,98735.94
2023-05-15T11:36:51.833Z,98731.50
2023-05-15T11:40:56.590Z,98731.41
2023-05-15T11:44:59.204Z,98720.94
2023-05-15T11:49:03.347Z,98716.25
2023-05-15T11:53:07.156Z,98704.50
2023-05-15T11:57:09.745Z,98713.00
2023-05-15T12:01:12.467Z,98720.28
2023-05-15T12:05:16.426Z,98715.78
2023-05-15T12:09:22.492Z,98721.03
2023-05-15T12:13:25.882Z,98724.59
2023-05-15T12:17:28.757Z,98722.50
2023-05-15T12:21:34.292Z,98759.28
2023-05-15T12:25:38.498Z,98766.22
2023-05-15T12:29:41.751Z,98768.28
2023-05-15T12:33:44.512Z,98798.97
2023-05-15T12:37:48.511Z,98780.28
2023-05-15T12:41:54.218Z,98781.09
2023-05-15T12:45:57.486Z,98788.69
2023-05-15T12:50:00.898Z,98793.47
2023-05-15T12:54:04.932Z,98785.69
2023-05-15T12:58:08.908Z,98788.94
2023-05-15T13:02:12.278Z,98794.13
2023-05-15T13:06:17.740Z,98786.38
2023-05-15T13:10:24.074Z,98785.81
2023-05-15T13:14:29.695Z,98783.41
2023-05-15T13:18:32.329Z,98773.84
2023-05-15T13:22:35.040Z,98768.22
2023-05-15T13:26:39.062Z,98759.34
2023-05-15T13:30:42.343Z,98761.00
2023-05-15T13:34:45.003Z,98761.63
2023-05-15T13:38:47.654Z,98774.06
2023-05-15T13:42:51.632Z,98772.03
2023-05-15T13:46:54.291Z,98774.06
2023-05-15T13:50:56.981Z,98783.69
2023-05-15T13:54:59.655Z,98773.78
2023-05-15T13:59:04.088Z,98766.09
2023-05-15T14:03:06.905Z,98766.69
2023-05-15T14:07:09.536Z,98768.09
2023-05-15T14:11:12.345Z,98774.81
2023-05-15T14:15:16.354Z,98769.66
2023-05-15T14:19:19.066Z,98776.28
2023-05-15T14:23:21.762Z,98770.72
2023-05-15T14:27:24.444Z,98776.44
2023-05-15T14:31:28.499Z,98775.06
2023-05-15T14:35:31.161Z,98777.72
2023-05-15T14:39:33.902Z,98779.34
2023-05-15T14:43:36.540Z,98782.88
2023-05-15T14:47:40.609Z,98773.63
2023-05-15T14:51:43.326Z,98771.44
2023-05-15T14:55:46.092Z,98772.91
2023-05-15T14:59:48.710Z,98777.38
2023-05-15T15:03:52.873Z,98773.31
2023-05-15T15:08:00.451Z,98769.88
2023-05-15T15:12:03.068Z,98772.97
2023-05-15T15:16:06.548Z,98770.47
2023-05-15T15:20:12.218Z,98762.69
2023-05-15T15:24:14.899Z,98759.75
2023-05-15T15:28:17.570Z,98756.75
2023-05-15T15:32:20.002Z,98757.28
2023-05-15T15:36:24.762Z,98745.78
2023-05-15T15:40:29.777Z,98754.97
2023-05-15T15:44:34.296Z,98759.94
2023-05-15T15:48:37.354Z,98743.31
2023-05-15T15:52:41.497Z,98752.72
2023-05-15T15:56:44.170Z,98749.03
2023-05-15T16:00:46.997Z,98748.28
2023-05-15T16:04:49.445Z,98748.63
2023-05-15T16:08:53.552Z,98747.53
2023-05-15T16:12:56.922Z,98745.66
2023-05-15T16:16:59.613Z,98750.53
2023-05-15T16:21:02.331Z,98755.56
2023-05-15T16:25:07.209Z,98754.84
2023-05-15T16:29:10.104Z,98753.34
2023-05-15T16:33:12.660Z,98752.44
2023-05-15T16:37:16.380Z,98753.13
2023-05-15T16:41:21.463Z,98762.50
2023-05-15T16:45:24.253Z,98775.06
2023-05-15T16:49:26.882Z,98770.53
2023-05-15T16:53:30.063Z,98772.38
2023-05-15T16:57:34.249Z,98776.41
2023-05-15T17:01:37.249Z,98769.06
2023-05-15T17:05:39.931Z,98760.84
2023-05-15T17:09:44.499Z,98766.75
2023-05-15T17:13:48.541Z,98776.44
2023-05-15T17:17:51.272Z,98773.84
2023-05-15T17:21:53.904Z,98774.28
2023-05-15T17:25:56.519Z,98776.59
2023-05-15T17:30:00.837Z,98772.44
2023-05-15T17:34:03.435Z,98773.63
2023-05-15T17:38:06.160Z,98781.28
2023-05-15T17:42:08.823Z,98779.66
2023-05-15T17:46:12.831Z,98780.22
2023-05-15T17:50:15.613Z,98783.63
2023-05-15T17:54:18.551Z,98790.69
2023-05-15T17:58:21.853Z,98799.47
2023-05-15T18:02:25.937Z,98801.81
2023-05-15T18:06:29.136Z,98809.41
2023-05-15T18:10:32.150Z,98813.66
2023-05-15T18:14:34.838Z,98822.34
2023-05-15T18:18:38.849Z,98822.56
2023-05-15T18:22:43.295Z,98838.44
2023-05-15T18:26:45.946Z,98849.03
2023-05-15T18:30:48.681Z,98854.34
2023-05-15T18:34:52.689Z,98859.38
2023-05-15T18:38:55.315Z,98861.03
2023-05-15T18:42:58.118Z,98864.81
2023-05-15T18:47:00.870Z,98854.44
2023-05-15T18:51:05.240Z,98880.84
2023-05-15T18:55:09.652Z,98885.94
2023-05-15T18:59:12.451Z,98893.19
2023-05-15T19:03:15.879Z,98892.47
2023-05-15T19:07:20.038Z,98906.69
2023-05-15T19:11:22.678Z,98894.06
2023-05-15T19:15:25.853Z,98908.38
2023-05-15T19:19:28.473Z,98907.44
2023-05-15T19:23:32.513Z,98907.91
2023-05-15T19:27:35.686Z,98927.00
2023-05-15T19:31:38.688Z,98937.66
2023-05-15T19:35:44.286Z,98945.41
2023-05-15T19:39:48.302Z,98959.66
2023-05-15T19:43:51.347Z,98960.25
2023-05-15T19:47:54.217Z,98968.06
2023-05-15T19:51:56.904Z,98967.56
2023-05-15T19:56:00.948Z,98963.88
2023-05-15T20:00:04.788Z,98977.22
2023-05-15T20:04:07.574Z,98981.69
2023-05-15T20:08:10.932Z,98990.19
2023-05-15T20:12:14.917Z,98996.84
2023-05-15T20:16:18.248Z,98992.88
2023-05-15T20:20:21.437Z,98988.91
2023-05-15T20:24:25.787Z,98999.84
2023-05-15T20:28:30.208Z,99000.09
2023-05-15T20:32:32.969Z,99006.75
2023-05-15T20:36:35.933Z,99003.84
2023-05-15T20:40:38.760Z,99013.38
2023-05-15T20:44:42.716Z,99008.34
2023-05-15T20:48:45.466Z,99008.63
2023-05-15T20:52:48.090Z,99021.91
2023-05-15T20:56:50.741Z,99025.34
2023-05-15T21:00:54.732Z,99036.75
2023-05-15T21:04:57.354Z,99032.22
2023-05-15T21:08:59.952Z,99042.28
2023-05-15T21:13:02.577Z,99041.78
2023-05-15T21:17:06.837Z,99044.38
2023-05-15T21:21:09.489Z,99009.63
2023-05-15T21:25:12.466Z,99044.69
2023-05-15T21:29:15.232Z,99043.00
2023-05-15T21:33:19.173Z,99043.53
2023-05-15T21:37:21.789Z,99041.09
2023-05-15T21:41:25.903Z,99043.78
2023-05-15T21:45:28.522Z,99036.78
2023-05-15T21:49:32.478Z,99040.00
2023-05-15T21:53:35.375Z,99041.97
2023-05-15T21:57:38.019Z,99046.22
2023-05-15T22:01:41.492Z,99054.19
2023-05-15T22:05:45.936Z,99047.88
2023-05-15T22:09:48.678Z,99052.19
2023-05-15T22:13:51.333Z,99046.34
2023-05-15T22:17:54.028Z,99055.19
2023-05-15T22:21:58.160Z,99056.81
2023-05-15T22:26:00.922Z,99053.88
2023-05-15T22:30:03.684Z,99051.03
2023-05-15T22:34:06.320Z,99052.38
2023-05-15T22:38:10.294Z,99057.72
2023-05-15T22:42:12.987Z,99054.28
2023-05-15T22:46:16.658Z,99047.25
2023-05-15T22:50:19.309Z,99058.63
2023-05-15T22:54:23.722Z,99057.28
2023-05-15T22:58:26.490Z,99049.28
2023-05-15T23:02:29.154Z,99054.72
2023-05-15T23:06:32.354Z,99053.31
2023-05-15T23:10:36.510Z,99056.53
2023-05-15T23:14:39.136Z,99059.81
2023-05-15T23:18:41.876Z,99064.16
2023-05-15T23:22:44.594Z,99064.72
2023-05-15T23:26:48.669Z,99061.19
2023-05-15T23:30:53.457Z,99068.44
2023-05-15T23:34:58.280Z,99065.81
2023-05-15T23:39:00.872Z,99074.22
2023-05-15T23:43:05.111Z,99067.66
2023-05-15T23:47:07.892Z,99063.06
2023-05-15T23:51:10.980Z,99075.66
2023-05-15T23:55:13.965Z,99076.50
2023-05-15T23:59:18.001Z,99075.22
